BWU weather

Sydney Bankstown Airport
Sydney, New South Wales, Australia

Public forecast

Using degrees Celsius for public forecast. Weather courtesy of forecast.io.

METAR (pilot weather report)

Closest report is Sydney Kingsford Smith International Airport, 9.5 nm (17.6 km) E. Retrieved 2017/11/19 23:30 UTC (0 seconds ago):

YSSY 192330Z 13011KT 5000 -SHRA SCT015 BKN020 BKN030 21/15 Q1025 FM2345 13012KT 9999 -SHRA FEW015 SCT025

TAF (pilot weather forecast)

Closest forecast is Sydney Kingsford Smith International Airport, 9.5 nm (17.6 km) E. Retrieved 2017/11/19 18:00 UTC (5 hours ago):

TAF YSSY 191639Z 1918/2024 15008KT 9999 -SHRA SCT030 BKN050 FM192300 12015KT 9999 SCT035 FM200900 12008KT 9999 SCT030